sensor_id;sensor_type;location;lat;lon;timestamp;pressure;altitude;pressure_sealevel;temperature;humidity
24031;BME280;12240;51.142;22.486;2023-07-20T00:00:58;98568.28;;;16.17;100.00
24031;BME280;12240;51.142;22.486;2023-07-20T00:03:26;98561.47;;;16.08;100.00
24031;BME280;12240;51.142;22.486;2023-07-20T00:05:54;98568.91;;;16.06;100.00
24031;BME280;12240;51.142;22.486;2023-07-20T00:08:22;98561.88;;;15.98;100.00
24031;BME280;12240;51.142;22.486;2023-07-20T00:10:50;98554.84;;;15.91;100.00
24031;BME280;12240;51.142;22.486;2023-07-20T00:13:18;98555.47;;;15.86;100.00
24031;BME280;12240;51.142;22.486;2023-07-20T00:15:49;98555.88;;;15.77;100.00
24031;BME280;12240;51.142;22.486;2023-07-20T00:18:17;98549.28;;;15.79;100.00
24031;BME280;12240;51.142;22.486;2023-07-20T00:20:50;98539.78;;;15.77;100.00
24031;BME280;12240;51.142;22.486;2023-07-20T00:23:18;98549.47;;;15.71;100.00
24031;BME280;12240;51.142;22.486;2023-07-20T00:25:51;98542.66;;;15.69;100.00
24031;BME280;12240;51.142;22.486;2023-07-20T00:28:19;98543.06;;;15.66;100.00
24031;BME280;12240;51.142;22.486;2023-07-20T00:30:49;98536.84;;;15.65;100.00
24031;BME280;12240;51.142;22.486;2023-07-20T00:33:17;98547.38;;;15.67;100.00
24031;BME280;12240;51.142;22.486;2023-07-20T00:35:46;98547.19;;;15.62;100.00
24031;BME280;12240;51.142;22.486;2023-07-20T00:38:17;98539.13;;;15.55;100.00
24031;BME280;12240;51.142;22.486;2023-07-20T00:40:45;98540.38;;;15.53;100.00
24031;BME280;12240;51.142;22.486;2023-07-20T00:43:13;98531.69;;;15.51;100.00
24031;BME280;12240;51.142;22.486;2023-07-20T00:45:41;98522.59;;;15.45;100.00
24031;BME280;12240;51.142;22.486;2023-07-20T00:48:10;98530.22;;;15.42;100.00
24031;BME280;12240;51.142;22.486;2023-07-20T00:50:40;98529.59;;;15.40;100.00
24031;BME280;12240;51.142;22.486;2023-07-20T00:53:09;98534.72;;;15.35;100.00
24031;BME280;12240;51.142;22.486;2023-07-20T00:55:37;98532.16;;;15.13;100.00
24031;BME280;12240;51.142;22.486;2023-07-20T00:58:08;98531.34;;;15.06;100.00
24031;BME280;12240;51.142;22.486;2023-07-20T01:00:36;98532.16;;;15.07;100.00
24031;BME280;12240;51.142;22.486;2023-07-20T01:03:04;98531.94;;;15.08;100.00
24031;BME280;12240;51.142;22.486;2023-07-20T01:05:54;98525.56;;;15.03;100.00
24031;BME280;12240;51.142;22.486;2023-07-20T01:09:02;98525.50;;;14.96;100.00
24031;BME280;12240;51.142;22.486;2023-07-20T01:12:12;98525.06;;;14.86;100.00
24031;BME280;12240;51.142;22.486;2023-07-20T01:14:40;98523.41;;;14.79;100.00
24031;BME280;12240;51.142;22.486;2023-07-20T01:17:09;98525.78;;;14.61;100.00
24031;BME280;12240;51.142;22.486;2023-07-20T01:19:37;98519.97;;;14.57;100.00
24031;BME280;12240;51.142;22.486;2023-07-20T01:22:33;98521.56;;;14.45;100.00
24031;BME280;12240;51.142;22.486;2023-07-20T01:31:21;98515.00;;;14.48;100.00
24031;BME280;12240;51.142;22.486;2023-07-20T01:33:54;98501.19;;;14.17;100.00
24031;BME280;12240;51.142;22.486;2023-07-20T01:36:24;98507.09;;;14.12;100.00
24031;BME280;12240;51.142;22.486;2023-07-20T01:38:54;98491.13;;;13.91;100.00
24031;BME280;12240;51.142;22.486;2023-07-20T01:41:24;98489.63;;;13.61;100.00
24031;BME280;12240;51.142;22.486;2023-07-20T01:43:52;98484.63;;;13.51;100.00
24031;BME280;12240;51.142;22.486;2023-07-20T01:46:20;98490.34;;;13.48;100.00
24031;BME280;12240;51.142;22.486;2023-07-20T01:48:49;98504.59;;;13.55;100.00
24031;BME280;12240;51.142;22.486;2023-07-20T01:51:18;98504.66;;;13.62;100.00
24031;BME280;12240;51.142;22.486;2023-07-20T01:53:49;98513.94;;;13.66;100.00
24031;BME280;12240;51.142;22.486;2023-07-20T01:56:17;98519.22;;;13.80;100.00
24031;BME280;12240;51.142;22.486;2023-07-20T01:58:45;98527.34;;;13.93;100.00
24031;BME280;12240;51.142;22.486;2023-07-20T02:01:14;98537.63;;;13.90;100.00
24031;BME280;12240;51.142;22.486;2023-07-20T02:03:42;98545.66;;;13.90;100.00
24031;BME280;12240;51.142;22.486;2023-07-20T02:06:10;98555.25;;;13.84;100.00
24031;BME280;12240;51.142;22.486;2023-07-20T02:08:38;98558.97;;;13.83;100.00
24031;BME280;12240;51.142;22.486;2023-07-20T02:11:06;98561.94;;;13.95;100.00
24031;BME280;12240;51.142;22.486;2023-07-20T02:13:34;98564.25;;;13.98;100.00
24031;BME280;12240;51.142;22.486;2023-07-20T02:16:02;98557.47;;;14.02;100.00
24031;BME280;12240;51.142;22.486;2023-07-20T02:18:30;98553.59;;;14.04;100.00
24031;BME280;12240;51.142;22.486;2023-07-20T02:20:58;98551.50;;;14.00;100.00
24031;BME280;12240;51.142;22.486;2023-07-20T02:23:27;98557.28;;;14.03;100.00
24031;BME280;12240;51.142;22.486;2023-07-20T02:25:55;98549.69;;;14.07;100.00
24031;BME280;12240;51.142;22.486;2023-07-20T02:28:23;98551.16;;;14.10;100.00
24031;BME280;12240;51.142;22.486;2023-07-20T02:30:52;98538.63;;;14.10;100.00
24031;BME280;12240;51.142;22.486;2023-07-20T02:33:20;98539.63;;;14.09;100.00
24031;BME280;12240;51.142;22.486;2023-07-20T02:35:48;98529.56;;;14.11;100.00
24031;BME280;12240;51.142;22.486;2023-07-20T02:38:20;98533.41;;;14.30;100.00
24031;BME280;12240;51.142;22.486;2023-07-20T02:40:48;98518.03;;;14.17;100.00
24031;BME280;12240;51.142;22.486;2023-07-20T02:43:16;98520.84;;;14.02;100.00
24031;BME280;12240;51.142;22.486;2023-07-20T02:45:46;98517.69;;;13.92;100.00
24031;BME280;12240;51.142;22.486;2023-07-20T02:48:14;98522.84;;;13.94;100.00
24031;BME280;12240;51.142;22.486;2023-07-20T02:50:44;98519.19;;;14.01;100.00
24031;BME280;12240;51.142;22.486;2023-07-20T02:53:12;98527.56;;;14.20;100.00
24031;BME280;12240;51.142;22.486;2023-07-20T02:55:40;98510.38;;;14.35;100.00
24031;BME280;12240;51.142;22.486;2023-07-20T02:58:08;98519.50;;;14.41;100.00
24031;BME280;12240;51.142;22.486;2023-07-20T03:00:36;98525.63;;;14.35;100.00
24031;BME280;12240;51.142;22.486;2023-07-20T03:03:05;98539.91;;;14.48;100.00
24031;BME280;12240;51.142;22.486;2023-07-20T03:05:41;98542.03;;;14.59;100.00
24031;BME280;12240;51.142;22.486;2023-07-20T03:08:10;98542.94;;;14.73;100.00
24031;BME280;12240;51.142;22.486;2023-07-20T03:10:41;98538.25;;;14.81;100.00
24031;BME280;12240;51.142;22.486;2023-07-20T03:13:09;98523.00;;;14.88;100.00
24031;BME280;12240;51.142;22.486;2023-07-20T03:15:39;98531.72;;;15.03;100.00
24031;BME280;12240;51.142;22.486;2023-07-20T03:18:07;98527.41;;;15.09;100.00
24031;BME280;12240;51.142;22.486;2023-07-20T03:20:36;98529.09;;;15.16;100.00
24031;BME280;12240;51.142;22.486;2023-07-20T03:23:05;98538.59;;;15.19;100.00
24031;BME280;12240;51.142;22.486;2023-07-20T03:25:34;98531.81;;;15.30;100.00
24031;BME280;12240;51.142;22.486;2023-07-20T03:28:02;98532.03;;;15.35;100.00
24031;BME280;12240;51.142;22.486;2023-07-20T03:30:30;98528.16;;;15.44;100.00
24031;BME280;12240;51.142;22.486;2023-07-20T03:32:58;98527.38;;;15.56;100.00
24031;BME280;12240;51.142;22.486;2023-07-20T03:35:27;98531.06;;;15.62;100.00
24031;BME280;12240;51.142;22.486;2023-07-20T03:37:55;98529.84;;;15.64;100.00
24031;BME280;12240;51.142;22.486;2023-07-20T03:40:23;98535.44;;;15.63;100.00
24031;BME280;12240;51.142;22.486;2023-07-20T03:42:52;98536.66;;;15.67;100.00
24031;BME280;12240;51.142;22.486;2023-07-20T03:45:20;98531.53;;;15.72;100.00
24031;BME280;12240;51.142;22.486;2023-07-20T03:47:52;98523.88;;;15.75;100.00
24031;BME280;12240;51.142;22.486;2023-07-20T03:50:20;98519.75;;;15.79;100.00
24031;BME280;12240;51.142;22.486;2023-07-20T03:52:48;98525.31;;;15.84;100.00
24031;BME280;12240;51.142;22.486;2023-07-20T03:55:16;98523.47;;;15.91;100.00
24031;BME280;12240;51.142;22.486;2023-07-20T03:57:44;98530.28;;;15.94;100.00
24031;BME280;12240;51.142;22.486;2023-07-20T04:00:13;98532.34;;;15.92;100.00
24031;BME280;12240;51.142;22.486;2023-07-20T04:02:42;98525.53;;;15.89;100.00
24031;BME280;12240;51.142;22.486;2023-07-20T04:05:10;98531.13;;;16.01;100.00
24031;BME280;12240;51.142;22.486;2023-07-20T04:07:39;98521.78;;;16.10;100.00
24031;BME280;12240;51.142;22.486;2023-07-20T04:10:07;98529.25;;;16.14;100.00
24031;BME280;12240;51.142;22.486;2023-07-20T04:12:36;98528.59;;;16.19;100.00
24031;BME280;12240;51.142;22.486;2023-07-20T04:15:04;98529.44;;;16.19;100.00
24031;BME280;12240;51.142;22.486;2023-07-20T04:17:34;98529.44;;;16.19;100.00
24031;BME280;12240;51.142;22.486;2023-07-20T04:20:03;98534.41;;;16.09;100.00
24031;BME280;12240;51.142;22.486;2023-07-20T04:22:32;98537.72;;;16.05;100.00
24031;BME280;12240;51.142;22.486;2023-07-20T04:25:00;98540.81;;;16.02;100.00
24031;BME280;12240;51.142;22.486;2023-07-20T04:27:28;98540.00;;;16.08;100.00
24031;BME280;12240;51.142;22.486;2023-07-20T04:30:01;98538.53;;;16.18;100.00
24031;BME280;12240;51.142;22.486;2023-07-20T04:32:30;98536.03;;;16.23;100.00
24031;BME280;12240;51.142;22.486;2023-07-20T04:35:06;98536.69;;;16.32;100.00
24031;BME280;12240;51.142;22.486;2023-07-20T04:37:40;98545.13;;;16.42;100.00
24031;BME280;12240;51.142;22.486;2023-07-20T04:40:17;98551.94;;;16.45;100.00
24031;BME280;12240;51.142;22.486;2023-07-20T04:42:45;98551.94;;;16.51;100.00
24031;BME280;12240;51.142;22.486;2023-07-20T04:45:13;98563.09;;;16.42;100.00
24031;BME280;12240;51.142;22.486;2023-07-20T04:47:41;98586.06;;;16.24;100.00
24031;BME280;12240;51.142;22.486;2023-07-20T04:50:10;98625.72;;;16.16;100.00
24031;BME280;12240;51.142;22.486;2023-07-20T04:52:38;98618.69;;;16.02;100.00
24031;BME280;12240;51.142;22.486;2023-07-20T04:55:15;98626.75;;;16.02;100.00
24031;BME280;12240;51.142;22.486;2023-07-20T04:57:43;98626.13;;;16.00;100.00
24031;BME280;12240;51.142;22.486;2023-07-20T05:00:13;98608.56;;;16.10;100.00
24031;BME280;12240;51.142;22.486;2023-07-20T05:02:42;98609.19;;;16.25;100.00
24031;BME280;12240;51.142;22.486;2023-07-20T05:05:11;98614.97;;;16.29;100.00
24031;BME280;12240;51.142;22.486;2023-07-20T05:07:39;98608.38;;;16.38;100.00
24031;BME280;12240;51.142;22.486;2023-07-20T05:10:08;98621.16;;;16.43;100.00
24031;BME280;12240;51.142;22.486;2023-07-20T05:12:36;98607.97;;;16.48;100.00
24031;BME280;12240;51.142;22.486;2023-07-20T05:15:05;98608.38;;;16.51;100.00
24031;BME280;12240;51.142;22.486;2023-07-20T05:17:33;98598.44;;;16.45;100.00
24031;BME280;12240;51.142;22.486;2023-07-20T05:20:02;98587.09;;;16.50;100.00
24031;BME280;12240;51.142;22.486;2023-07-20T05:22:32;98596.41;;;16.54;100.00
24031;BME280;12240;51.142;22.486;2023-07-20T05:25:01;98594.34;;;16.56;100.00
24031;BME280;12240;51.142;22.486;2023-07-20T05:27:30;98598.44;;;16.58;100.00
24031;BME280;12240;51.142;22.486;2023-07-20T05:29:58;98596.78;;;16.70;100.00
24031;BME280;12240;51.142;22.486;2023-07-20T05:32:27;98609.19;;;16.71;100.00
24031;BME280;12240;51.142;22.486;2023-07-20T05:34:55;98620.38;;;16.68;100.00
24031;BME280;12240;51.142;22.486;2023-07-20T05:37:25;98627.00;;;16.59;100.00
24031;BME280;12240;51.142;22.486;2023-07-20T05:39:53;98629.88;;;16.71;100.00
24031;BME280;12240;51.142;22.486;2023-07-20T05:42:21;98622.03;;;16.63;100.00
24031;BME280;12240;51.142;22.486;2023-07-20T05:44:50;98625.75;;;16.49;100.00
24031;BME280;12240;51.142;22.486;2023-07-20T05:47:20;98627.78;;;16.40;100.00
24031;BME280;12240;51.142;22.486;2023-07-20T05:49:49;98635.66;;;16.28;100.00
24031;BME280;12240;51.142;22.486;2023-07-20T05:52:17;98640.81;;;16.30;100.00
24031;BME280;12240;51.142;22.486;2023-07-20T05:54:46;98646.59;;;16.27;100.00
24031;BME280;12240;51.142;22.486;2023-07-20T05:57:14;98641.44;;;16.32;100.00
24031;BME280;12240;51.142;22.486;2023-07-20T05:59:42;98648.69;;;16.25;100.00
24031;BME280;12240;51.142;22.486;2023-07-20T06:02:12;98656.94;;;16.30;100.00
24031;BME280;12240;51.142;22.486;2023-07-20T06:04:40;98651.16;;;16.20;100.00
24031;BME280;12240;51.142;22.486;2023-07-20T06:07:09;98647.22;;;16.09;100.00
24031;BME280;12240;51.142;22.486;2023-07-20T06:09:37;98647.00;;;16.17;100.00
24031;BME280;12240;51.142;22.486;2023-07-20T06:12:06;98673.44;;;16.14;100.00
24031;BME280;12240;51.142;22.486;2023-07-20T06:14:35;98694.09;;;16.07;100.00
24031;BME280;12240;51.142;22.486;2023-07-20T06:17:04;98707.09;;;15.97;100.00
24031;BME280;12240;51.142;22.486;2023-07-20T06:19:32;98706.84;;;15.85;100.00
24031;BME280;12240;51.142;22.486;2023-07-20T06:22:01;98722.69;;;15.74;100.00
24031;BME280;12240;51.142;22.486;2023-07-20T06:24:29;98721.44;;;15.63;100.00
24031;BME280;12240;51.142;22.486;2023-07-20T06:26:58;98732.53;;;15.54;100.00
24031;BME280;12240;51.142;22.486;2023-07-20T06:29:26;98742.94;;;15.36;100.00
24031;BME280;12240;51.142;22.486;2023-07-20T06:31:54;98738.75;;;15.27;100.00
24031;BME280;12240;51.142;22.486;2023-07-20T06:34:22;98714.91;;;15.10;100.00
24031;BME280;12240;51.142;22.486;2023-07-20T06:36:51;62174.59;;;-142.46;100.00
24031;BME280;12240;51.142;22.486;2023-07-20T06:39:20;62174.59;;;-142.46;100.00
24031;BME280;12240;51.142;22.486;2023-07-20T06:41:52;62174.59;;;-142.46;100.00
24031;BME280;12240;51.142;22.486;2023-07-20T06:44:22;62174.59;;;-142.46;100.00
24031;BME280;12240;51.142;22.486;2023-07-20T06:46:51;62174.59;;;-142.46;100.00
24031;BME280;12240;51.142;22.486;2023-07-20T06:49:26;62174.59;;;-142.46;100.00
24031;BME280;12240;51.142;22.486;2023-07-20T06:51:55;62174.59;;;-142.46;100.00
24031;BME280;12240;51.142;22.486;2023-07-20T06:54:23;62174.59;;;-142.46;100.00
24031;BME280;12240;51.142;22.486;2023-07-20T06:56:52;62174.59;;;-142.46;100.00
24031;BME280;12240;51.142;22.486;2023-07-20T06:59:24;62174.59;;;-142.46;100.00
24031;BME280;12240;51.142;22.486;2023-07-20T07:01:53;62174.59;;;-142.46;100.00
24031;BME280;12240;51.142;22.486;2023-07-20T07:04:21;62174.59;;;-142.46;100.00
24031;BME280;12240;51.142;22.486;2023-07-20T07:06:49;62174.59;;;-142.46;100.00
24031;BME280;12240;51.142;22.486;2023-07-20T07:09:17;62174.59;;;-142.46;100.00
24031;BME280;12240;51.142;22.486;2023-07-20T07:11:46;62174.59;;;-142.46;100.00
24031;BME280;12240;51.142;22.486;2023-07-20T07:14:15;62174.59;;;-142.46;100.00
24031;BME280;12240;51.142;22.486;2023-07-20T07:16:43;62174.59;;;-142.46;100.00
24031;BME280;12240;51.142;22.486;2023-07-20T07:19:11;62174.59;;;-142.46;100.00
24031;BME280;12240;51.142;22.486;2023-07-20T07:21:40;62174.59;;;-142.46;100.00
24031;BME280;12240;51.142;22.486;2023-07-20T07:24:08;62174.59;;;-142.46;100.00
24031;BME280;12240;51.142;22.486;2023-07-20T07:26:37;62174.59;;;-142.46;100.00
24031;BME280;12240;51.142;22.486;2023-07-20T07:29:06;62174.59;;;-142.46;100.00
24031;BME280;12240;51.142;22.486;2023-07-20T07:31:35;62174.59;;;-142.46;100.00
24031;BME280;12240;51.142;22.486;2023-07-20T07:34:04;62174.59;;;-142.46;100.00
24031;BME280;12240;51.142;22.486;2023-07-20T07:36:33;62174.59;;;-142.46;100.00
24031;BME280;12240;51.142;22.486;2023-07-20T07:39:01;62174.59;;;-142.46;100.00
24031;BME280;12240;51.142;22.486;2023-07-20T07:41:49;62174.59;;;-142.46;100.00
24031;BME280;12240;51.142;22.486;2023-07-20T07:44:18;62174.59;;;-142.46;100.00
24031;BME280;12240;51.142;22.486;2023-07-20T07:46:47;62174.59;;;-142.46;100.00
24031;BME280;12240;51.142;22.486;2023-07-20T07:49:16;62174.59;;;-142.46;100.00
24031;BME280;12240;51.142;22.486;2023-07-20T07:51:45;62174.59;;;-142.46;100.00
24031;BME280;12240;51.142;22.486;2023-07-20T07:54:13;62174.59;;;-142.46;100.00
24031;BME280;12240;51.142;22.486;2023-07-20T07:56:41;62174.59;;;-142.46;100.00
24031;BME280;12240;51.142;22.486;2023-07-20T07:59:11;62174.59;;;-142.46;100.00
24031;BME280;12240;51.142;22.486;2023-07-20T08:01:39;62174.59;;;-142.46;100.00
24031;BME280;12240;51.142;22.486;2023-07-20T08:04:07;62174.59;;;-142.46;100.00
24031;BME280;12240;51.142;22.486;2023-07-20T08:06:36;62174.59;;;-142.46;100.00
24031;BME280;12240;51.142;22.486;2023-07-20T08:09:05;62174.59;;;-142.46;100.00
24031;BME280;12240;51.142;22.486;2023-07-20T08:11:33;62174.59;;;-142.46;100.00
24031;BME280;12240;51.142;22.486;2023-07-20T08:14:01;62174.59;;;-142.46;100.00
24031;BME280;12240;51.142;22.486;2023-07-20T08:16:29;62174.59;;;-142.46;100.00
24031;BME280;12240;51.142;22.486;2023-07-20T08:18:58;62174.59;;;-142.46;100.00
24031;BME280;12240;51.142;22.486;2023-07-20T08:21:27;62174.59;;;-142.46;100.00
24031;BME280;12240;51.142;22.486;2023-07-20T08:23:56;62174.59;;;-142.46;100.00
24031;BME280;12240;51.142;22.486;2023-07-20T08:26:24;62174.59;;;-142.46;100.00
24031;BME280;12240;51.142;22.486;2023-07-20T08:28:53;62174.59;;;-142.46;100.00
24031;BME280;12240;51.142;22.486;2023-07-20T08:31:21;62174.59;;;-142.46;100.00
24031;BME280;12240;51.142;22.486;2023-07-20T08:33:50;62174.59;;;-142.46;100.00
24031;BME280;12240;51.142;22.486;2023-07-20T08:36:18;62174.59;;;-142.46;100.00
24031;BME280;12240;51.142;22.486;2023-07-20T08:38:47;62174.59;;;-142.46;100.00
24031;BME280;12240;51.142;22.486;2023-07-20T08:41:16;98714.91;;;15.10;100.00
24031;BME280;12240;51.142;22.486;2023-07-20T08:43:46;98777.91;;;18.80;100.00
24031;BME280;12240;51.142;22.486;2023-07-20T08:46:16;98779.16;;;19.27;100.00
24031;BME280;12240;51.142;22.486;2023-07-20T08:48:45;98770.56;;;18.87;100.00
24031;BME280;12240;51.142;22.486;2023-07-20T08:51:15;62174.59;;;-142.46;100.00
24031;BME280;12240;51.142;22.486;2023-07-20T08:53:46;62174.59;;;-142.46;100.00
24031;BME280;12240;51.142;22.486;2023-07-20T08:56:16;62174.59;;;-142.46;100.00
24031;BME280;12240;51.142;22.486;2023-07-20T08:58:46;62174.59;;;-142.46;100.00
24031;BME280;12240;51.142;22.486;2023-07-20T09:01:14;62174.59;;;-142.46;100.00
24031;BME280;12240;51.142;22.486;2023-07-20T09:03:45;62174.59;;;-142.46;100.00
24031;BME280;12240;51.142;22.486;2023-07-20T09:06:14;62174.59;;;-142.46;100.00
24031;BME280;12240;51.142;22.486;2023-07-20T09:08:43;62174.59;;;-142.46;100.00
24031;BME280;12240;51.142;22.486;2023-07-20T09:11:12;62174.59;;;-142.46;100.00
24031;BME280;12240;51.142;22.486;2023-07-20T09:13:41;62174.59;;;-142.46;100.00
24031;BME280;12240;51.142;22.486;2023-07-20T09:16:13;62174.59;;;-142.46;100.00
24031;BME280;12240;51.142;22.486;2023-07-20T09:18:43;62174.59;;;-142.46;100.00
24031;BME280;12240;51.142;22.486;2023-07-20T09:21:11;62174.59;;;-142.46;100.00
24031;BME280;12240;51.142;22.486;2023-07-20T09:23:39;62174.59;;;-142.46;100.00
24031;BME280;12240;51.142;22.486;2023-07-20T09:26:14;62174.59;;;-142.46;100.00
24031;BME280;12240;51.142;22.486;2023-07-20T09:28:53;62174.59;;;-142.46;100.00
24031;BME280;12240;51.142;22.486;2023-07-20T09:31:23;62174.59;;;-142.46;100.00
24031;BME280;12240;51.142;22.486;2023-07-20T09:33:53;62174.59;;;-142.46;100.00
24031;BME280;12240;51.142;22.486;2023-07-20T09:36:27;62174.59;;;-142.46;100.00
24031;BME280;12240;51.142;22.486;2023-07-20T09:38:59;62174.59;;;-142.46;100.00
24031;BME280;12240;51.142;22.486;2023-07-20T09:41:40;62174.59;;;-142.46;100.00
24031;BME280;12240;51.142;22.486;2023-07-20T09:44:15;62174.59;;;-142.46;100.00
24031;BME280;12240;51.142;22.486;2023-07-20T09:46:48;62174.59;;;-142.46;100.00
24031;BME280;12240;51.142;22.486;2023-07-20T09:49:20;62174.59;;;-142.46;100.00
24031;BME280;12240;51.142;22.486;2023-07-20T09:51:52;62174.59;;;-142.46;100.00
24031;BME280;12240;51.142;22.486;2023-07-20T09:54:22;62174.59;;;-142.46;100.00
24031;BME280;12240;51.142;22.486;2023-07-20T09:56:51;62174.59;;;-142.46;100.00
24031;BME280;12240;51.142;22.486;2023-07-20T09:59:20;62174.59;;;-142.46;100.00
24031;BME280;12240;51.142;22.486;2023-07-20T10:01:49;62174.59;;;-142.46;100.00
24031;BME280;12240;51.142;22.486;2023-07-20T10:04:21;62174.59;;;-142.46;100.00
24031;BME280;12240;51.142;22.486;2023-07-20T10:06:59;62174.59;;;-142.46;100.00
24031;BME280;12240;51.142;22.486;2023-07-20T10:09:30;62174.59;;;-142.46;100.00
24031;BME280;12240;51.142;22.486;2023-07-20T10:12:01;62174.59;;;-142.46;100.00
24031;BME280;12240;51.142;22.486;2023-07-20T10:15:05;62174.59;;;-142.46;100.00
24031;BME280;12240;51.142;22.486;2023-07-20T10:17:47;62174.59;;;-142.46;100.00
24031;BME280;12240;51.142;22.486;2023-07-20T10:20:20;62174.59;;;-142.46;100.00
24031;BME280;12240;51.142;22.486;2023-07-20T10:22:53;62174.59;;;-142.46;100.00
24031;BME280;12240;51.142;22.486;2023-07-20T10:25:24;62174.59;;;-142.46;100.00
24031;BME280;12240;51.142;22.486;2023-07-20T10:27:53;62174.59;;;-142.46;100.00
24031;BME280;12240;51.142;22.486;2023-07-20T10:30:22;62174.59;;;-142.46;100.00
24031;BME280;12240;51.142;22.486;2023-07-20T10:32:51;62174.59;;;-142.46;100.00
24031;BME280;12240;51.142;22.486;2023-07-20T10:35:20;62174.59;;;-142.46;100.00
24031;BME280;12240;51.142;22.486;2023-07-20T10:37:51;62174.59;;;-142.46;100.00
24031;BME280;12240;51.142;22.486;2023-07-20T10:40:38;62174.59;;;-142.46;100.00
24031;BME280;12240;51.142;22.486;2023-07-20T10:43:09;62174.59;;;-142.46;100.00
24031;BME280;12240;51.142;22.486;2023-07-20T10:45:47;62174.59;;;-142.46;100.00
24031;BME280;12240;51.142;22.486;2023-07-20T10:51:19;62174.59;;;-142.46;100.00
24031;BME280;12240;51.142;22.486;2023-07-20T10:53:49;62174.59;;;-142.46;100.00
24031;BME280;12240;51.142;22.486;2023-07-20T10:56:22;62174.59;;;-142.46;100.00
24031;BME280;12240;51.142;22.486;2023-07-20T10:58:57;62174.59;;;-142.46;100.00
24031;BME280;12240;51.142;22.486;2023-07-20T11:01:36;62174.59;;;-142.46;100.00
24031;BME280;12240;51.142;22.486;2023-07-20T11:04:08;62174.59;;;-142.46;100.00
24031;BME280;12240;51.142;22.486;2023-07-20T11:06:37;62174.59;;;-142.46;100.00
24031;BME280;12240;51.142;22.486;2023-07-20T11:09:11;62174.59;;;-142.46;100.00
24031;BME280;12240;51.142;22.486;2023-07-20T11:11:47;62174.59;;;-142.46;100.00
24031;BME280;12240;51.142;22.486;2023-07-20T11:14:26;62174.59;;;-142.46;100.00
24031;BME280;12240;51.142;22.486;2023-07-20T11:16:54;62174.59;;;-142.46;100.00
24031;BME280;12240;51.142;22.486;2023-07-20T11:19:25;62174.59;;;-142.46;100.00
24031;BME280;12240;51.142;22.486;2023-07-20T11:21:58;62174.59;;;-142.46;100.00
24031;BME280;12240;51.142;22.486;2023-07-20T11:24:31;62174.59;;;-142.46;100.00
24031;BME280;12240;51.142;22.486;2023-07-20T11:27:01;62174.59;;;-142.46;100.00
24031;BME280;12240;51.142;22.486;2023-07-20T11:29:30;62174.59;;;-142.46;100.00
24031;BME280;12240;51.142;22.486;2023-07-20T11:32:03;62174.59;;;-142.46;100.00
24031;BME280;12240;51.142;22.486;2023-07-20T11:34:35;62174.59;;;-142.46;100.00
24031;BME280;12240;51.142;22.486;2023-07-20T11:37:05;62174.59;;;-142.46;100.00
24031;BME280;12240;51.142;22.486;2023-07-20T11:39:36;62174.59;;;-142.46;100.00
24031;BME280;12240;51.142;22.486;2023-07-20T11:42:05;62174.59;;;-142.46;100.00
24031;BME280;12240;51.142;22.486;2023-07-20T11:44:35;62174.59;;;-142.46;100.00
24031;BME280;12240;51.142;22.486;2023-07-20T11:49:38;62174.59;;;-142.46;100.00
24031;BME280;12240;51.142;22.486;2023-07-20T11:52:15;62174.59;;;-142.46;100.00
24031;BME280;12240;51.142;22.486;2023-07-20T11:54:44;62174.59;;;-142.46;100.00
24031;BME280;12240;51.142;22.486;2023-07-20T11:57:20;62174.59;;;-142.46;100.00
24031;BME280;12240;51.142;22.486;2023-07-20T12:00:03;62174.59;;;-142.46;100.00
24031;BME280;12240;51.142;22.486;2023-07-20T12:02:39;62174.59;;;-142.46;100.00
24031;BME280;12240;51.142;22.486;2023-07-20T12:05:08;62174.59;;;-142.46;100.00
24031;BME280;12240;51.142;22.486;2023-07-20T12:07:37;62174.59;;;-142.46;100.00
24031;BME280;12240;51.142;22.486;2023-07-20T12:10:12;62174.59;;;-142.46;100.00
24031;BME280;12240;51.142;22.486;2023-07-20T12:12:43;62174.59;;;-142.46;100.00
24031;BME280;12240;51.142;22.486;2023-07-20T12:15:27;62174.59;;;-142.46;100.00
24031;BME280;12240;51.142;22.486;2023-07-20T12:18:00;62174.59;;;-142.46;100.00
24031;BME280;12240;51.142;22.486;2023-07-20T12:20:34;62174.59;;;-142.46;100.00
24031;BME280;12240;51.142;22.486;2023-07-20T12:23:08;62174.59;;;-142.46;100.00
24031;BME280;12240;51.142;22.486;2023-07-20T12:25:47;62174.59;;;-142.46;100.00
24031;BME280;12240;51.142;22.486;2023-07-20T12:28:19;62174.59;;;-142.46;100.00
24031;BME280;12240;51.142;22.486;2023-07-20T12:30:48;62174.59;;;-142.46;100.00
24031;BME280;12240;51.142;22.486;2023-07-20T12:33:24;62174.59;;;-142.46;100.00
24031;BME280;12240;51.142;22.486;2023-07-20T12:35:53;62174.59;;;-142.46;100.00
24031;BME280;12240;51.142;22.486;2023-07-20T12:38:26;62174.59;;;-142.46;100.00
24031;BME280;12240;51.142;22.486;2023-07-20T12:40:55;62174.59;;;-142.46;100.00
24031;BME280;12240;51.142;22.486;2023-07-20T12:43:24;62174.59;;;-142.46;100.00
24031;BME280;12240;51.142;22.486;2023-07-20T12:45:53;62174.59;;;-142.46;100.00
24031;BME280;12240;51.142;22.486;2023-07-20T12:48:23;62174.59;;;-142.46;100.00
24031;BME280;12240;51.142;22.486;2023-07-20T12:50:51;62174.59;;;-142.46;100.00
24031;BME280;12240;51.142;22.486;2023-07-20T12:53:20;62174.59;;;-142.46;100.00
24031;BME280;12240;51.142;22.486;2023-07-20T12:55:49;62174.59;;;-142.46;100.00
24031;BME280;12240;51.142;22.486;2023-07-20T12:58:17;62174.59;;;-142.46;100.00